Time;durP1;ratioP1;P1;durP2;ratioP2;P2;SDS_P1;SDS_P2;PMS_P1;PMS_P2;Temp;Humidity;BMP_temperature;BMP_pressure;BME280_temperature;BME280_humidity;BME280_pressure;Samples;Min_cycle;Max_cycle;Signal;HPM_P1;HPM_P2
2023/04/11 00:01:19;;;;;;;2.97;2.70;;;;;;;;;;5015569;28;20188;-50
2023/04/11 00:03:45;;;;;;;3.15;2.85;;;;;;;;;;5015748;28;20458;-50
2023/04/11 00:06:11;;;;;;;3.03;2.72;;;;;;;;;;5007344;28;20181;-50
2023/04/11 00:08:37;;;;;;;3.25;2.80;;;;;;;;;;5015575;28;20185;-50
2023/04/11 00:11:03;;;;;;;3.15;2.85;;;;;;;;;;5013780;28;20215;-50
2023/04/11 00:13:29;;;;;;;2.97;2.72;;;;;;;;;;5013990;28;20848;-49
2023/04/11 00:15:55;;;;;;;2.85;2.65;;;;;;;;;;5007443;28;20296;-50
2023/04/11 00:18:21;;;;;;;3.22;2.90;;;;;;;;;;5011683;28;20181;-50
2023/04/11 00:20:47;;;;;;;3.13;2.72;;;;;;;;;;4994174;28;20177;-50
2023/04/11 00:23:13;;;;;;;3.22;2.92;;;;;;;;;;5012092;28;20206;-49
2023/04/11 00:25:39;;;;;;;3.22;2.92;;;;;;;;;;5007531;28;20176;-49
2023/04/11 00:28:05;;;;;;;3.22;2.92;;;;;;;;;;5013129;28;20549;-50
2023/04/11 00:30:31;;;;;;;2.67;2.47;;;;;;;;;;5010847;28;20184;-50
2023/04/11 00:32:57;;;;;;;3.13;2.83;;;;;;;;;;5008356;28;20627;-50
2023/04/11 00:35:23;;;;;;;3.28;2.97;;;;;;;;;;5012842;28;20258;-50
2023/04/11 00:37:54;;;;;;;2.75;2.55;;;;;;;;;;5011052;28;20185;-50
2023/04/11 00:40:20;;;;;;;2.75;2.55;;;;;;;;;;5010086;28;20598;-51
2023/04/11 00:42:46;;;;;;;3.55;3.05;;;;;;;;;;5014424;28;20173;-50
2023/04/11 00:45:12;;;;;;;4.70;2.80;;;;;;;;;;5012690;28;20199;-50
2023/04/11 00:47:38;;;;;;;2.85;2.65;;;;;;;;;;5014718;28;20185;-50
2023/04/11 00:50:05;;;;;;;2.83;2.63;;;;;;;;;;5013337;28;20186;-50
2023/04/11 00:52:31;;;;;;;3.03;2.80;;;;;;;;;;5014811;28;20172;-50
2023/04/11 00:54:57;;;;;;;2.70;2.50;;;;;;;;;;5012989;28;20176;-49
2023/04/11 00:57:24;;;;;;;3.20;2.90;;;;;;;;;;5014420;28;20197;-49
2023/04/11 00:59:51;;;;;;;2.95;2.65;;;;;;;;;;5011828;28;20176;-50
2023/04/11 01:02:17;;;;;;;2.78;2.55;;;;;;;;;;5014145;28;20267;-50
2023/04/11 01:04:44;;;;;;;2.90;2.70;;;;;;;;;;5013323;28;20195;-50
2023/04/11 01:07:11;;;;;;;2.90;2.70;;;;;;;;;;5013498;28;20191;-50
2023/04/11 01:09:38;;;;;;;3.08;2.83;;;;;;;;;;5011689;28;20184;-50
2023/04/11 01:12:05;;;;;;;2.88;2.67;;;;;;;;;;5013143;28;20188;-49
2023/04/11 01:14:31;;;;;;;2.72;2.53;;;;;;;;;;5011534;28;20223;-49
2023/04/11 01:17:00;;;;;;;2.70;2.50;;;;;;;;;;5008655;28;20204;-49
2023/04/11 01:19:26;;;;;;;3.15;2.88;;;;;;;;;;5012108;28;20184;-49
2023/04/11 01:21:53;;;;;;;2.63;2.42;;;;;;;;;;5007803;28;20184;-50
2023/04/11 01:24:19;;;;;;;3.25;2.90;;;;;;;;;;5006850;28;20458;-50
2023/04/11 01:26:45;;;;;;;3.00;2.70;;;;;;;;;;5007484;28;20180;-49
2023/04/11 01:29:11;;;;;;;2.90;2.60;;;;;;;;;;5014041;28;20560;-49
2023/04/11 01:31:37;;;;;;;2.53;2.33;;;;;;;;;;5014118;28;20200;-49
2023/04/11 01:34:03;;;;;;;3.42;3.08;;;;;;;;;;5010859;28;20196;-49
2023/04/11 01:36:31;;;;;;;2.95;2.65;;;;;;;;;;5013292;28;20219;-49
2023/04/11 01:38:57;;;;;;;3.35;2.55;;;;;;;;;;5012137;28;20204;-49
2023/04/11 01:41:26;;;;;;;2.70;2.50;;;;;;;;;;5016534;28;20199;-49
2023/04/11 01:43:52;;;;;;;2.88;2.67;;;;;;;;;;5015746;28;20177;-49
2023/04/11 01:46:18;;;;;;;2.78;2.58;;;;;;;;;;5011247;28;20181;-49
2023/04/11 01:48:44;;;;;;;2.75;2.55;;;;;;;;;;5015961;28;20597;-49
2023/04/11 01:51:11;;;;;;;2.55;2.35;;;;;;;;;;5015826;28;20659;-50
2023/04/11 01:53:37;;;;;;;2.55;2.35;;;;;;;;;;5008662;28;20184;-49
2023/04/11 01:56:03;;;;;;;2.60;2.40;;;;;;;;;;5011359;28;20240;-50
2023/04/11 01:58:29;;;;;;;2.83;2.63;;;;;;;;;;5010717;28;20212;-49
2023/04/11 02:00:55;;;;;;;2.90;2.70;;;;;;;;;;5012141;28;20181;-50
2023/04/11 02:03:21;;;;;;;2.85;2.60;;;;;;;;;;5017187;28;20203;-50
2023/04/11 02:05:47;;;;;;;3.25;2.50;;;;;;;;;;5015196;28;20180;-50
2023/04/11 02:08:13;;;;;;;2.88;2.58;;;;;;;;;;5017289;28;20235;-50
2023/04/11 02:10:39;;;;;;;2.72;2.53;;;;;;;;;;5011586;28;20548;-50
2023/04/11 02:13:05;;;;;;;2.85;2.55;;;;;;;;;;5016457;28;20192;-49
2023/04/11 02:15:30;;;;;;;2.35;2.15;;;;;;;;;;5016452;28;20219;-49
2023/04/11 02:17:59;;;;;;;2.53;2.33;;;;;;;;;;5017639;28;20179;-49
2023/04/11 02:20:24;;;;;;;2.58;2.38;;;;;;;;;;5015122;28;20627;-49
2023/04/11 02:22:50;;;;;;;2.63;2.30;;;;;;;;;;5011147;28;20212;-49
2023/04/11 02:25:16;;;;;;;3.67;2.85;;;;;;;;;;5016447;28;20192;-50
2023/04/11 02:27:42;;;;;;;2.55;2.35;;;;;;;;;;5008321;28;20188;-49
2023/04/11 02:30:08;;;;;;;2.80;2.55;;;;;;;;;;5016880;28;20176;-49
2023/04/11 02:32:35;;;;;;;2.58;2.38;;;;;;;;;;5010207;28;20195;-50
2023/04/11 02:35:01;;;;;;;2.88;2.60;;;;;;;;;;5013372;28;20215;-50
2023/04/11 02:37:27;;;;;;;2.60;2.40;;;;;;;;;;5014743;28;20200;-49
2023/04/11 02:39:54;;;;;;;2.90;2.70;;;;;;;;;;5015524;28;20227;-50
2023/04/11 02:42:20;;;;;;;3.00;2.70;;;;;;;;;;5016068;28;20185;-49
2023/04/11 02:44:46;;;;;;;2.30;2.10;;;;;;;;;;5014776;28;20184;-50
2023/04/11 02:47:12;;;;;;;2.58;2.38;;;;;;;;;;5007190;28;20177;-50
2023/04/11 02:49:40;;;;;;;2.65;2.45;;;;;;;;;;5012003;28;21033;-50
2023/04/11 02:52:05;;;;;;;2.78;2.17;;;;;;;;;;5012080;28;20192;-49
2023/04/11 02:54:31;;;;;;;2.53;2.33;;;;;;;;;;5014107;28;20189;-50
2023/04/11 02:56:57;;;;;;;2.00;1.90;;;;;;;;;;5009426;28;20288;-49
2023/04/11 02:59:23;;;;;;;2.60;2.40;;;;;;;;;;5014636;28;20219;-49
2023/04/11 03:01:49;;;;;;;2.92;2.67;;;;;;;;;;5013113;28;20556;-49
2023/04/11 03:04:15;;;;;;;2.42;2.22;;;;;;;;;;5014037;28;20190;-50
2023/04/11 03:06:41;;;;;;;2.30;2.10;;;;;;;;;;5015688;28;20184;-50
2023/04/11 03:09:07;;;;;;;2.67;2.35;;;;;;;;;;5015609;28;20575;-50
2023/04/11 03:11:33;;;;;;;3.20;2.30;;;;;;;;;;5014651;28;20199;-50
2023/04/11 03:13:59;;;;;;;3.47;2.60;;;;;;;;;;5015930;28;20626;-50
2023/04/11 03:16:26;;;;;;;2.72;2.53;;;;;;;;;;5013615;28;20208;-51
2023/04/11 03:18:52;;;;;;;2.80;2.60;;;;;;;;;;5015821;28;20183;-50
2023/04/11 03:21:18;;;;;;;2.40;2.20;;;;;;;;;;5014368;28;20189;-50
2023/04/11 03:23:44;;;;;;;2.90;2.25;;;;;;;;;;5016433;28;20219;-50
2023/04/11 03:26:11;;;;;;;3.95;2.80;;;;;;;;;;5014483;28;20211;-50
2023/04/11 03:28:37;;;;;;;2.70;2.50;;;;;;;;;;5011533;28;20795;-51
2023/04/11 03:31:03;;;;;;;2.50;2.25;;;;;;;;;;5013320;28;20216;-50
2023/04/11 03:33:29;;;;;;;2.72;2.47;;;;;;;;;;5011395;28;20202;-50
2023/04/11 03:35:55;;;;;;;5.30;2.83;;;;;;;;;;5010154;28;20208;-49
2023/04/11 03:38:21;;;;;;;11.90;3.10;;;;;;;;;;5012462;28;20192;-50
2023/04/11 03:40:47;;;;;;;8.15;2.75;;;;;;;;;;5014604;28;20548;-49
2023/04/11 03:43:13;;;;;;;9.18;3.03;;;;;;;;;;5015912;28;20220;-49
2023/04/11 03:45:39;;;;;;;4.88;3.40;;;;;;;;;;5012256;28;20211;-50
2023/04/11 03:48:05;;;;;;;4.40;2.70;;;;;;;;;;5014108;28;20456;-49
2023/04/11 03:50:31;;;;;;;4.38;2.72;;;;;;;;;;5009695;28;20184;-49
2023/04/11 03:52:57;;;;;;;7.82;3.40;;;;;;;;;;5009035;28;20199;-49
2023/04/11 03:55:24;;;;;;;4.53;3.05;;;;;;;;;;5013990;28;20473;-49
2023/04/11 03:57:50;;;;;;;7.18;2.72;;;;;;;;;;5011281;28;20173;-49
2023/04/11 04:00:16;;;;;;;5.43;2.97;;;;;;;;;;5010746;28;20250;-49
2023/04/11 04:02:42;;;;;;;4.97;2.85;;;;;;;;;;5013326;28;20196;-49
2023/04/11 04:05:08;;;;;;;6.28;2.83;;;;;;;;;;5011199;28;20269;-49
2023/04/11 04:07:34;;;;;;;4.32;2.85;;;;;;;;;;5010784;28;20207;-49
2023/04/11 04:10:00;;;;;;;5.13;2.72;;;;;;;;;;5014835;28;20180;-50
2023/04/11 04:12:26;;;;;;;6.93;3.13;;;;;;;;;;5028153;28;20184;-50
2023/04/11 04:14:52;;;;;;;3.03;2.67;;;;;;;;;;5032790;28;20187;-49
2023/04/11 04:17:18;;;;;;;5.88;2.78;;;;;;;;;;5034667;28;20209;-49
2023/04/11 04:19:44;;;;;;;5.30;2.90;;;;;;;;;;5033636;28;20183;-49
2023/04/11 04:22:12;;;;;;;5.57;2.90;;;;;;;;;;5032440;28;20202;-49
2023/04/11 04:24:38;;;;;;;4.22;2.95;;;;;;;;;;5034081;28;20179;-49
2023/04/11 04:27:07;;;;;;;3.25;2.83;;;;;;;;;;5034882;28;20477;-49
2023/04/11 04:29:37;;;;;;;3.53;2.67;;;;;;;;;;5032924;28;20455;-49
2023/04/11 04:32:09;;;;;;;5.35;3.13;;;;;;;;;;5034424;28;20303;-49
2023/04/11 04:34:36;;;;;;;5.22;3.10;;;;;;;;;;5028188;28;20188;-49
2023/04/11 04:37:02;;;;;;;5.93;3.25;;;;;;;;;;5032810;28;20578;-49
2023/04/11 04:39:28;;;;;;;6.95;3.30;;;;;;;;;;5032301;28;20203;-49
2023/04/11 04:42:00;;;;;;;4.25;2.67;;;;;;;;;;5033851;28;20176;-49
2023/04/11 04:44:26;;;;;;;3.22;2.88;;;;;;;;;;5031906;28;21588;-49
2023/04/11 04:46:55;;;;;;;5.50;2.70;;;;;;;;;;5034806;28;20195;-49
2023/04/11 04:49:21;;;;;;;4.25;2.70;;;;;;;;;;5032197;28;20176;-50
2023/04/11 04:51:47;;;;;;;4.63;3.05;;;;;;;;;;5022433;28;20192;-50
2023/04/11 04:54:14;;;;;;;5.38;2.90;;;;;;;;;;5032674;28;20199;-50
2023/04/11 04:56:40;;;;;;;3.10;2.67;;;;;;;;;;5032736;28;20254;-49
2023/04/11 04:59:07;;;;;;;3.67;2.60;;;;;;;;;;5030083;28;20188;-50
2023/04/11 05:01:33;;;;;;;4.20;2.92;;;;;;;;;;5025958;28;20199;-50
2023/04/11 05:03:59;;;;;;;2.53;2.33;;;;;;;;;;5031075;28;20176;-50
2023/04/11 05:06:30;;;;;;;3.17;2.60;;;;;;;;;;5025329;28;20198;-49
2023/04/11 05:08:57;;;;;;;3.72;3.20;;;;;;;;;;5029680;28;20791;-50
2023/04/11 05:11:23;;;;;;;4.28;2.83;;;;;;;;;;5028990;28;20195;-49
2023/04/11 05:13:49;;;;;;;2.70;2.50;;;;;;;;;;5033041;28;20180;-49
2023/04/11 05:16:17;;;;;;;3.75;2.75;;;;;;;;;;5033182;28;20207;-50
2023/04/11 05:18:43;;;;;;;4.43;2.78;;;;;;;;;;5033643;28;20195;-50
2023/04/11 05:21:09;;;;;;;2.88;2.67;;;;;;;;;;5031824;28;20180;-50
2023/04/11 05:23:36;;;;;;;4.00;2.90;;;;;;;;;;5028379;28;20500;-50
2023/04/11 05:26:02;;;;;;;3.30;2.72;;;;;;;;;;5033249;28;20455;-50
2023/04/11 05:28:27;;;;;;;2.72;2.53;;;;;;;;;;5034011;28;20208;-50
2023/04/11 05:30:53;;;;;;;2.90;2.60;;;;;;;;;;5030771;28;20234;-50
2023/04/11 05:33:20;;;;;;;3.58;2.90;;;;;;;;;;5033882;28;20481;-50
2023/04/11 05:35:46;;;;;;;4.13;3.08;;;;;;;;;;5026582;28;20294;-49
2023/04/11 05:38:12;;;;;;;3.10;2.47;;;;;;;;;;5033636;28;20278;-50
2023/04/11 05:40:38;;;;;;;3.03;2.70;;;;;;;;;;5032940;28;20190;-50
2023/04/11 05:43:04;;;;;;;2.85;2.50;;;;;;;;;;5033376;28;20187;-50
2023/04/11 05:45:30;;;;;;;4.85;2.80;;;;;;;;;;5029584;28;20196;-50
2023/04/11 05:47:56;;;;;;;3.38;2.60;;;;;;;;;;5026497;28;20180;-50
2023/04/11 05:50:22;;;;;;;3.80;3.15;;;;;;;;;;5032840;28;20198;-50
2023/04/11 05:52:48;;;;;;;3.97;2.75;;;;;;;;;;5034074;28;20321;-49
2023/04/11 05:55:14;;;;;;;2.95;2.65;;;;;;;;;;5033423;28;20257;-50
2023/04/11 05:57:39;;;;;;;3.30;2.75;;;;;;;;;;5033525;28;20262;-50
2023/04/11 06:00:12;;;;;;;2.95;2.45;;;;;;;;;;5027060;28;20217;-50
2023/04/11 06:02:38;;;;;;;3.20;2.60;;;;;;;;;;5016029;28;20203;-50
2023/04/11 06:05:04;;;;;;;4.45;2.63;;;;;;;;;;5032918;28;20187;-50
2023/04/11 06:07:31;;;;;;;3.05;2.67;;;;;;;;;;5027150;28;20563;-50
2023/04/11 06:09:57;;;;;;;2.45;2.20;;;;;;;;;;5030902;28;20180;-49
2023/04/11 06:12:23;;;;;;;2.90;2.70;;;;;;;;;;5033026;28;20589;-50
2023/04/11 06:14:49;;;;;;;2.72;2.42;;;;;;;;;;5026302;28;20211;-50
2023/04/11 06:17:15;;;;;;;3.42;2.65;;;;;;;;;;5030690;28;20200;-50
2023/04/11 06:19:41;;;;;;;3.22;2.65;;;;;;;;;;5030701;28;20515;-50
2023/04/11 06:22:07;;;;;;;2.75;2.42;;;;;;;;;;5033981;28;20196;-50
2023/04/11 06:24:36;;;;;;;2.92;2.60;;;;;;;;;;5033664;28;20223;-49
2023/04/11 06:27:02;;;;;;;2.28;2.08;;;;;;;;;;5029533;28;20175;-50
2023/04/11 06:29:29;;;;;;;2.70;2.47;;;;;;;;;;5036229;28;20533;-49
2023/04/11 06:31:55;;;;;;;3.25;2.42;;;;;;;;;;5034070;28;20273;-50
2023/04/11 06:34:21;;;;;;;2.67;2.42;;;;;;;;;;5029797;28;20539;-50
2023/04/11 06:36:48;;;;;;;2.90;2.58;;;;;;;;;;5034988;28;20218;-50
2023/04/11 06:39:15;;;;;;;2.50;2.30;;;;;;;;;;5035167;28;20581;-49
2023/04/11 06:41:41;;;;;;;2.58;2.38;;;;;;;;;;5028144;28;20230;-50
2023/04/11 06:44:07;;;;;;;4.15;2.85;;;;;;;;;;5033936;28;20183;-50
2023/04/11 06:46:33;;;;;;;3.05;2.80;;;;;;;;;;5026774;28;20246;-50
2023/04/11 06:48:59;;;;;;;3.17;2.63;;;;;;;;;;5037337;28;20180;-50
2023/04/11 06:51:25;;;;;;;2.53;2.20;;;;;;;;;;5033498;28;20471;-49
2023/04/11 06:53:52;;;;;;;2.42;2.22;;;;;;;;;;5037098;28;20199;-49
2023/04/11 06:56:18;;;;;;;2.58;2.38;;;;;;;;;;5032762;28;20195;-49
2023/04/11 06:58:44;;;;;;;4.05;2.40;;;;;;;;;;5035514;28;20186;-49
2023/04/11 07:01:11;;;;;;;2.65;2.45;;;;;;;;;;5036470;28;20180;-49
2023/04/11 07:03:37;;;;;;;3.10;2.45;;;;;;;;;;5028953;28;20286;-50
2023/04/11 07:06:03;;;;;;;2.30;2.10;;;;;;;;;;5035772;28;20259;-50
2023/04/11 07:08:29;;;;;;;2.65;2.35;;;;;;;;;;5028044;28;20190;-50
2023/04/11 07:10:55;;;;;;;2.63;2.33;;;;;;;;;;5032417;28;20207;-50
2023/04/11 07:13:21;;;;;;;3.10;2.40;;;;;;;;;;5036458;28;20448;-49
2023/04/11 07:15:46;;;;;;;3.53;2.50;;;;;;;;;;5034258;28;20313;-49
2023/04/11 07:18:13;;;;;;;2.75;2.33;;;;;;;;;;5030525;28;20223;-49
2023/04/11 07:20:38;;;;;;;2.92;2.38;;;;;;;;;;5028029;28;20190;-49
2023/04/11 07:23:04;;;;;;;2.50;2.30;;;;;;;;;;5036433;28;20176;-49
2023/04/11 07:25:32;;;;;;;2.75;2.50;;;;;;;;;;5034869;28;20179;-49
2023/04/11 07:27:59;;;;;;;2.47;2.28;;;;;;;;;;5029694;28;20204;-49
2023/04/11 07:30:25;;;;;;;2.58;2.10;;;;;;;;;;5032969;28;20213;-49
2023/04/11 07:32:51;;;;;;;2.75;2.15;;;;;;;;;;5035110;28;20231;-50
2023/04/11 07:35:17;;;;;;;2.35;2.10;;;;;;;;;;5034961;28;20187;-50
2023/04/11 07:37:44;;;;;;;2.20;2.00;;;;;;;;;;5033925;28;20176;-50
2023/04/11 07:40:12;;;;;;;2.50;2.05;;;;;;;;;;5027523;28;20203;-49
2023/04/11 07:42:38;;;;;;;2.33;2.00;;;;;;;;;;5027178;28;20629;-50
2023/04/11 07:45:05;;;;;;;2.65;2.30;;;;;;;;;;5034050;28;20203;-49
2023/04/11 07:47:31;;;;;;;2.30;2.10;;;;;;;;;;5031622;28;20581;-49
2023/04/11 07:49:57;;;;;;;2.20;2.00;;;;;;;;;;5031540;28;20266;-50
2023/04/11 07:52:23;;;;;;;2.28;2.08;;;;;;;;;;5034657;28;20195;-49
2023/04/11 07:54:49;;;;;;;2.67;1.83;;;;;;;;;;5029019;28;20192;-50
2023/04/11 07:57:15;;;;;;;3.10;2.25;;;;;;;;;;5033639;28;20258;-49
2023/04/11 07:59:41;;;;;;;2.35;1.85;;;;;;;;;;5035021;28;20467;-49
2023/04/11 08:02:07;;;;;;;1.67;1.58;;;;;;;;;;5025454;28;20196;-49
2023/04/11 08:04:33;;;;;;;2.10;1.90;;;;;;;;;;5030907;28;20208;-50
2023/04/11 08:06:59;;;;;;;2.65;2.15;;;;;;;;;;5033107;28;20616;-49
2023/04/11 08:09:26;;;;;;;2.00;1.80;;;;;;;;;;5034161;28;20192;-49
2023/04/11 08:11:52;;;;;;;2.10;1.90;;;;;;;;;;5028692;28;20208;-49
2023/04/11 08:14:18;;;;;;;2.05;1.83;;;;;;;;;;5031539;28;20185;-49
2023/04/11 08:16:44;;;;;;;1.83;1.50;;;;;;;;;;5026592;28;20226;-49
2023/04/11 08:19:10;;;;;;;1.85;1.75;;;;;;;;;;5030177;28;20716;-49
2023/04/11 08:21:37;;;;;;;1.45;1.35;;;;;;;;;;5027080;28;20180;-49
2023/04/11 08:24:03;;;;;;;1.90;1.80;;;;;;;;;;5034613;28;20188;-49
2023/04/11 08:26:29;;;;;;;2.10;1.90;;;;;;;;;;5031092;28;20299;-49
2023/04/11 08:28:55;;;;;;;2.28;1.73;;;;;;;;;;5035806;28;20267;-49
2023/04/11 08:31:20;;;;;;;2.08;1.70;;;;;;;;;;5023067;28;20239;-50
2023/04/11 08:33:47;;;;;;;1.85;1.60;;;;;;;;;;5033728;28;20183;-50
2023/04/11 08:36:13;;;;;;;1.80;1.70;;;;;;;;;;5029203;28;20273;-50
2023/04/11 08:38:39;;;;;;;2.00;1.70;;;;;;;;;;5031663;28;20199;-49
2023/04/11 08:41:05;;;;;;;1.77;1.52;;;;;;;;;;5034171;28;20262;-50
2023/04/11 08:43:35;;;;;;;1.88;1.60;;;;;;;;;;5034074;28;20179;-50
2023/04/11 08:46:04;;;;;;;1.70;1.60;;;;;;;;;;5029796;28;20184;-49
2023/04/11 08:48:31;;;;;;;1.83;1.63;;;;;;;;;;5031505;28;20184;-50
2023/04/11 08:50:57;;;;;;;1.92;1.60;;;;;;;;;;5032733;28;20208;-50
2023/04/11 08:53:24;;;;;;;1.95;1.63;;;;;;;;;;5034929;28;20201;-52
2023/04/11 08:55:50;;;;;;;1.55;1.40;;;;;;;;;;5033099;28;20282;-49
2023/04/11 08:58:16;;;;;;;1.40;1.30;;;;;;;;;;5027509;28;20314;-50
2023/04/11 09:00:42;;;;;;;1.45;1.35;;;;;;;;;;5033560;28;20584;-49
2023/04/11 09:03:09;;;;;;;2.25;1.70;;;;;;;;;;5016779;28;20204;-49
2023/04/11 09:05:40;;;;;;;1.65;1.55;;;;;;;;;;5033826;28;20450;-49
2023/04/11 09:08:09;;;;;;;1.70;1.50;;;;;;;;;;5031305;28;20218;-49
2023/04/11 09:10:36;;;;;;;1.40;1.30;;;;;;;;;;5030229;28;20183;-49
2023/04/11 09:13:18;;;;;;;1.70;1.60;;;;;;;;;;5023006;28;20176;-49
2023/04/11 09:15:44;;;;;;;1.58;1.35;;;;;;;;;;5030864;28;20522;-50
2023/04/11 09:18:10;;;;;;;1.40;1.30;;;;;;;;;;5034261;28;20226;-49
2023/04/11 09:20:35;;;;;;;1.55;1.30;;;;;;;;;;5029218;28;20262;-49
2023/04/11 09:23:01;;;;;;;1.40;1.30;;;;;;;;;;5031563;28;20257;-49
2023/04/11 09:25:27;;;;;;;1.80;1.52;;;;;;;;;;5031454;28;20451;-49
2023/04/11 09:28:06;;;;;;;1.65;1.55;;;;;;;;;;5033931;28;20195;-49
2023/04/11 09:30:33;;;;;;;1.60;1.50;;;;;;;;;;5029808;28;20180;-49
2023/04/11 09:32:59;;;;;;;1.70;1.20;;;;;;;;;;5034397;28;20184;-49
2023/04/11 09:35:27;;;;;;;1.65;1.30;;;;;;;;;;5032994;28;20242;-49
2023/04/11 09:38:02;;;;;;;1.48;1.33;;;;;;;;;;5033823;28;20264;-49
2023/04/11 09:40:31;;;;;;;1.63;1.38;;;;;;;;;;5034351;28;20171;-50
2023/04/11 09:43:01;;;;;;;1.27;1.17;;;;;;;;;;5034081;28;20180;-49
2023/04/11 09:45:28;;;;;;;1.73;1.30;;;;;;;;;;5033553;28;20180;-49
2023/04/11 09:47:55;;;;;;;1.27;1.17;;;;;;;;;;5033067;28;20225;-49
2023/04/11 09:50:22;;;;;;;1.30;1.20;;;;;;;;;;5034180;28;20179;-49
2023/04/11 09:52:48;;;;;;;1.25;1.15;;;;;;;;;;5033990;28;20209;-50
2023/04/11 09:55:21;;;;;;;2.20;1.50;;;;;;;;;;5032919;28;20184;-49
2023/04/11 09:57:53;;;;;;;1.20;1.10;;;;;;;;;;5033627;28;20202;-49
2023/04/11 10:00:20;;;;;;;1.35;1.10;;;;;;;;;;5036617;28;20175;-49
2023/04/11 10:02:48;;;;;;;1.10;1.00;;;;;;;;;;5037361;28;20234;-49
2023/04/11 10:05:15;;;;;;;1.13;1.00;;;;;;;;;;5036593;28;20172;-50
2023/04/11 10:07:45;;;;;;;1.23;1.10;;;;;;;;;;5036815;28;20183;-49
2023/04/11 10:10:15;;;;;;;0.98;0.93;;;;;;;;;;5036883;28;20226;-49
2023/04/11 10:12:41;;;;;;;2.20;1.20;;;;;;;;;;5036522;28;20179;-49
2023/04/11 10:15:07;;;;;;;1.20;1.08;;;;;;;;;;5033641;28;20198;-50
2023/04/11 10:17:33;;;;;;;1.45;1.10;;;;;;;;;;5033972;28;20211;-49
2023/04/11 10:19:59;;;;;;;1.05;0.90;;;;;;;;;;5030330;28;20448;-49
2023/04/11 10:22:45;;;;;;;1.17;1.05;;;;;;;;;;5030353;28;20188;-49
2023/04/11 10:25:17;;;;;;;1.45;1.10;;;;;;;;;;5028704;28;20615;-49
2023/04/11 10:27:52;;;;;;;1.05;0.95;;;;;;;;;;5028868;28;20577;-49
2023/04/11 10:30:18;;;;;;;1.70;1.20;;;;;;;;;;5030156;28;20618;-49
2023/04/11 10:33:07;;;;;;;1.10;1.00;;;;;;;;;;5034789;28;20283;-49
2023/04/11 10:35:33;;;;;;;1.25;1.15;;;;;;;;;;5029300;28;20268;-49
2023/04/11 10:37:59;;;;;;;1.27;0.85;;;;;;;;;;5029461;28;20531;-49
2023/04/11 10:40:25;;;;;;;1.08;1.00;;;;;;;;;;5029521;28;20182;-49
2023/04/11 10:42:51;;;;;;;1.35;1.10;;;;;;;;;;5034771;28;20179;-49
2023/04/11 10:45:20;;;;;;;0.90;0.90;;;;;;;;;;5025428;28;20183;-49
2023/04/11 10:47:55;;;;;;;1.30;0.90;;;;;;;;;;5033913;28;20172;-49
2023/04/11 10:50:24;;;;;;;1.13;1.00;;;;;;;;;;5036077;28;20232;-50
2023/04/11 10:52:51;;;;;;;1.42;0.82;;;;;;;;;;5028543;28;20187;-49
2023/04/11 10:55:17;;;;;;;1.05;1.00;;;;;;;;;;5011857;28;20176;-49
2023/04/11 10:58:01;;;;;;;1.30;0.80;;;;;;;;;;5035477;28;20207;-49
2023/04/11 11:00:28;;;;;;;1.00;0.90;;;;;;;;;;5030640;28;20223;-49
2023/04/11 11:02:54;;;;;;;1.67;0.85;;;;;;;;;;5034212;28;20218;-49
2023/04/11 11:05:21;;;;;;;0.90;0.90;;;;;;;;;;5034671;28;20237;-49
2023/04/11 11:07:47;;;;;;;0.80;0.73;;;;;;;;;;5035037;28;20176;-49
2023/04/11 11:10:14;;;;;;;1.23;0.90;;;;;;;;;;5028423;28;20183;-49
2023/04/11 11:12:56;;;;;;;0.70;0.70;;;;;;;;;;5035575;28;20187;-50
2023/04/11 11:15:22;;;;;;;1.77;0.98;;;;;;;;;;5032826;28;20191;-50
2023/04/11 11:17:48;;;;;;;0.73;0.70;;;;;;;;;;5032096;28;20275;-50
2023/04/11 11:20:18;;;;;;;0.80;0.80;;;;;;;;;;5035922;28;20618;-50
2023/04/11 11:22:57;;;;;;;1.05;0.85;;;;;;;;;;5027805;28;20286;-50
2023/04/11 11:25:24;;;;;;;1.88;0.65;;;;;;;;;;5025025;28;20233;-50
2023/04/11 11:27:57;;;;;;;2.17;0.70;;;;;;;;;;5033080;28;20180;-50
2023/04/11 11:30:23;;;;;;;0.80;0.80;;;;;;;;;;5033144;28;20179;-49
2023/04/11 11:32:49;;;;;;;0.75;0.75;;;;;;;;;;5036049;28;20184;-50
2023/04/11 11:35:15;;;;;;;0.70;0.60;;;;;;;;;;5017383;28;20211;-50
2023/04/11 11:37:41;;;;;;;1.10;1.00;;;;;;;;;;5035328;28;20270;-49
2023/04/11 11:40:11;;;;;;;1.17;0.90;;;;;;;;;;5027644;28;20218;-50
2023/04/11 11:42:37;;;;;;;0.80;0.80;;;;;;;;;;5034956;28;20570;-49
2023/04/11 11:45:20;;;;;;;0.70;0.70;;;;;;;;;;5034741;28;20257;-49
2023/04/11 11:47:46;;;;;;;1.17;0.90;;;;;;;;;;5034147;28;20187;-49
2023/04/11 11:50:29;;;;;;;0.80;0.80;;;;;;;;;;5035285;28;20188;-50
2023/04/11 11:52:55;;;;;;;0.70;0.70;;;;;;;;;;5035625;28;20479;-49
2023/04/11 11:55:21;;;;;;;1.00;0.70;;;;;;;;;;5033936;28;20566;-49
2023/04/11 11:57:48;;;;;;;0.80;0.80;;;;;;;;;;5033720;28;20602;-50
2023/04/11 12:00:14;;;;;;;0.80;0.80;;;;;;;;;;5031421;28;20214;-49
2023/04/11 12:02:43;;;;;;;0.60;0.60;;;;;;;;;;5031877;28;20293;-49
2023/04/11 12:05:12;;;;;;;1.10;0.80;;;;;;;;;;5033981;28;20191;-49
2023/04/11 12:07:39;;;;;;;0.70;0.70;;;;;;;;;;5033265;28;20187;-49
2023/04/11 12:10:07;;;;;;;4.53;0.90;;;;;;;;;;5033932;28;20183;-50
2023/04/11 12:12:40;;;;;;;8.40;1.45;;;;;;;;;;5035712;28;20184;-49
2023/04/11 12:15:16;;;;;;;9.20;1.77;;;;;;;;;;5033622;28;20194;-50
2023/04/11 12:17:43;;;;;;;3.40;1.30;;;;;;;;;;5023469;28;20293;-50
2023/04/11 12:20:10;;;;;;;7.28;1.52;;;;;;;;;;5030972;28;20554;-50
2023/04/11 12:22:36;;;;;;;6.78;1.63;;;;;;;;;;5034097;28;20555;-50
2023/04/11 12:25:05;;;;;;;5.05;1.10;;;;;;;;;;5033949;28;20187;-50
2023/04/11 12:27:35;;;;;;;6.35;1.20;;;;;;;;;;5032744;28;20215;-49
2023/04/11 12:30:01;;;;;;;2.08;1.50;;;;;;;;;;5026107;28;20204;-50
2023/04/11 12:32:27;;;;;;;7.40;1.65;;;;;;;;;;5029166;28;20261;-50
2023/04/11 12:34:53;;;;;;;6.35;1.27;;;;;;;;;;5028095;28;20220;-50
2023/04/11 12:37:20;;;;;;;6.35;1.27;;;;;;;;;;5028189;28;20215;-50
2023/04/11 12:39:46;;;;;;;10.05;1.77;;;;;;;;;;5032163;28;20279;-50
2023/04/11 12:42:12;;;;;;;3.33;1.27;;;;;;;;;;5034179;28;20270;-49
2023/04/11 12:44:38;;;;;;;3.15;1.10;;;;;;;;;;5033770;28;20191;-50
2023/04/11 12:47:04;;;;;;;2.13;1.42;;;;;;;;;;5033724;28;20262;-50
2023/04/11 12:49:30;;;;;;;3.22;1.50;;;;;;;;;;5033183;28;20294;-50
2023/04/11 12:51:56;;;;;;;2.17;1.30;;;;;;;;;;5033330;28;20191;-50
2023/04/11 12:54:22;;;;;;;4.60;1.45;;;;;;;;;;5016002;28;20571;-50
2023/04/11 12:56:48;;;;;;;1.92;1.10;;;;;;;;;;5034407;28;20218;-50
2023/04/11 12:59:14;;;;;;;1.60;1.10;;;;;;;;;;5028490;28;20254;-50
2023/04/11 13:01:40;;;;;;;5.05;1.40;;;;;;;;;;5025685;28;20206;-49
2023/04/11 13:04:06;;;;;;;2.55;1.20;;;;;;;;;;5032487;28;20218;-49
2023/04/11 13:06:32;;;;;;;2.25;1.20;;;;;;;;;;5033357;28;20249;-50
2023/04/11 13:08:58;;;;;;;2.38;1.23;;;;;;;;;;5031958;28;20180;-50
2023/04/11 13:11:24;;;;;;;3.83;1.30;;;;;;;;;;5034927;28;20184;-50
2023/04/11 13:13:51;;;;;;;3.30;0.90;;;;;;;;;;5033759;28;20442;-50
2023/04/11 13:16:17;;;;;;;2.22;1.25;;;;;;;;;;5025514;28;20555;-50
2023/04/11 13:18:42;;;;;;;3.55;1.15;;;;;;;;;;5033767;28;20183;-50
2023/04/11 13:21:08;;;;;;;2.42;1.20;;;;;;;;;;5028860;28;20179;-49
2023/04/11 13:23:35;;;;;;;1.77;1.20;;;;;;;;;;5030031;28;20187;-50
2023/04/11 13:26:01;;;;;;;6.80;1.50;;;;;;;;;;5029847;28;20184;-50
2023/04/11 13:28:27;;;;;;;5.22;1.40;;;;;;;;;;5024031;28;20221;-50
2023/04/11 13:30:53;;;;;;;5.70;1.30;;;;;;;;;;5029276;28;20443;-49
2023/04/11 13:33:19;;;;;;;4.20;1.38;;;;;;;;;;5033536;28;20199;-50
2023/04/11 13:35:45;;;;;;;4.32;1.48;;;;;;;;;;5036822;28;20551;-49
2023/04/11 13:38:11;;;;;;;6.47;1.58;;;;;;;;;;5037092;28;20282;-49
2023/04/11 13:40:38;;;;;;;4.63;1.48;;;;;;;;;;5038343;28;20456;-50
2023/04/11 13:43:04;;;;;;;1.73;1.23;;;;;;;;;;5037760;28;20746;-49
2023/04/11 13:45:30;;;;;;;4.57;1.50;;;;;;;;;;5036391;28;20261;-51
2023/04/11 13:47:56;;;;;;;5.55;1.85;;;;;;;;;;5037384;28;20574;-50
2023/04/11 13:50:22;;;;;;;6.05;1.92;;;;;;;;;;5037418;28;20701;-50
2023/04/11 13:52:49;;;;;;;1.98;1.58;;;;;;;;;;5037730;28;20609;-50
2023/04/11 13:55:14;;;;;;;6.43;1.70;;;;;;;;;;5037063;28;20190;-49
2023/04/11 13:57:40;;;;;;;6.22;1.83;;;;;;;;;;5037681;28;20207;-49
2023/04/11 14:00:10;;;;;;;5.30;1.73;;;;;;;;;;5037775;28;20611;-50
2023/04/11 14:02:36;;;;;;;5.07;1.40;;;;;;;;;;5036925;28;20248;-50
2023/04/11 14:05:02;;;;;;;2.70;1.40;;;;;;;;;;5037373;28;20192;-50
2023/04/11 14:07:28;;;;;;;4.25;1.63;;;;;;;;;;5037544;28;20263;-50
2023/04/11 14:09:54;;;;;;;1.70;1.38;;;;;;;;;;5033482;28;20190;-50
2023/04/11 14:12:20;;;;;;;8.43;1.58;;;;;;;;;;5037627;28;20200;-50
2023/04/11 14:14:45;;;;;;;2.60;1.30;;;;;;;;;;5029733;28;20180;-49
2023/04/11 14:17:11;;;;;;;3.83;1.30;;;;;;;;;;5034901;28;20452;-49
2023/04/11 14:19:37;;;;;;;3.40;1.50;;;;;;;;;;5032824;28;20190;-49
2023/04/11 14:22:03;;;;;;;2.88;1.20;;;;;;;;;;5036683;28;20262;-49
2023/04/11 14:24:30;;;;;;;2.15;1.45;;;;;;;;;;5036853;28;20436;-50
2023/04/11 14:26:56;;;;;;;3.50;1.60;;;;;;;;;;5035252;28;20190;-50
2023/04/11 14:29:22;;;;;;;3.40;1.35;;;;;;;;;;5036406;28;20185;-49
2023/04/11 14:31:48;;;;;;;5.75;1.63;;;;;;;;;;5035738;28;20211;-50
2023/04/11 14:34:14;;;;;;;3.00;1.33;;;;;;;;;;5035956;28;20197;-49
2023/04/11 14:36:40;;;;;;;1.70;1.10;;;;;;;;;;5036288;28;20203;-49
2023/04/11 14:39:07;;;;;;;2.83;1.23;;;;;;;;;;5031639;28;20192;-50
2023/04/11 14:41:32;;;;;;;1.60;1.20;;;;;;;;;;5037489;28;20446;-50